KBIS/BIS METAR and TAF weather

Enter ICAO airport designator
Station Type Date Time Source
KBIS METAR 2020/09/20 09:52 UTC NOAA

KBIS 200952Z AUTO 12005KT 9SM CLR 16/13 A2973 RMK AO2 SLP060 T01560128


Station Type Date Time Source
KBIS Decoded METAR 2020/09/20 09:52 UTC NOAA

BISMARCK MUNICIPAL AIRPORT, ND, United States (KBIS) 46-47N 100-45W 503M
Sep 20, 2020 - 05:52 AM EDT / 2020.09.20 0952 UTC
Wind: from the ESE (120 degrees) at 6 MPH (5 KT):0
Visibility: 9 mile(s):0
Sky conditions: clear
Temperature: 60.1 F (15.6 C)
Dew Point: 55.0 F (12.8 C)
Relative Humidity: 83%
Pressure (altimeter): 29.73 in. Hg (1006 hPa)
ob: KBIS 200952Z AUTO 12005KT 9SM CLR 16/13 A2973 RMK AO2 SLP060 T01560128
cycle: 10

Station Type Date Time Source
KBIS TAF 2020/09/20 06:39 UTC NOAA

TAF KBIS 200536Z 2006/2106 07008KT P6SM BKN200
FM201200 24009KT P6SM SCT050 BKN100
FM202100 26015G25KT P6SM FEW070 SCT140
FM210200 24009KT P6SM FEW080 SCT160

Example: see airport list